sensor_id;sensor_type;location;lat;lon;timestamp;P1;durP1;ratioP1;P2;durP2;ratioP2
61393;SDS011;48555;50.952;-0.120;2023-06-10T00:00:45;18.00;;;9.18;;
61393;SDS011;48555;50.952;-0.120;2023-06-10T00:03:10;18.15;;;9.23;;
61393;SDS011;48555;50.952;-0.120;2023-06-10T00:05:37;15.88;;;9.23;;
61393;SDS011;48555;50.952;-0.120;2023-06-10T00:08:04;18.17;;;9.68;;
61393;SDS011;48555;50.952;-0.120;2023-06-10T00:10:32;20.98;;;10.02;;
61393;SDS011;48555;50.952;-0.120;2023-06-10T00:12:59;15.02;;;9.27;;
61393;SDS011;48555;50.952;-0.120;2023-06-10T00:15:26;17.27;;;9.38;;
61393;SDS011;48555;50.952;-0.120;2023-06-10T00:17:51;17.50;;;9.48;;
61393;SDS011;48555;50.952;-0.120;2023-06-10T00:20:18;15.85;;;8.77;;
61393;SDS011;48555;50.952;-0.120;2023-06-10T00:22:43;16.48;;;9.10;;
61393;SDS011;48555;50.952;-0.120;2023-06-10T00:25:10;19.52;;;9.60;;
61393;SDS011;48555;50.952;-0.120;2023-06-10T00:27:36;16.58;;;9.23;;
61393;SDS011;48555;50.952;-0.120;2023-06-10T00:30:04;17.90;;;9.70;;
61393;SDS011;48555;50.952;-0.120;2023-06-10T00:32:32;13.02;;;8.25;;
61393;SDS011;48555;50.952;-0.120;2023-06-10T00:34:57;15.43;;;8.90;;
61393;SDS011;48555;50.952;-0.120;2023-06-10T00:37:23;15.40;;;9.32;;
61393;SDS011;48555;50.952;-0.120;2023-06-10T00:39:48;17.60;;;8.82;;
61393;SDS011;48555;50.952;-0.120;2023-06-10T00:42:13;15.88;;;8.45;;
61393;SDS011;48555;50.952;-0.120;2023-06-10T00:44:39;17.73;;;9.07;;
61393;SDS011;48555;50.952;-0.120;2023-06-10T00:47:05;16.30;;;9.48;;
61393;SDS011;48555;50.952;-0.120;2023-06-10T00:49:31;14.45;;;8.65;;
61393;SDS011;48555;50.952;-0.120;2023-06-10T00:51:57;15.88;;;9.07;;
61393;SDS011;48555;50.952;-0.120;2023-06-10T00:54:23;19.70;;;9.30;;
61393;SDS011;48555;50.952;-0.120;2023-06-10T00:56:49;16.02;;;9.13;;
61393;SDS011;48555;50.952;-0.120;2023-06-10T00:59:15;15.00;;;8.80;;
61393;SDS011;48555;50.952;-0.120;2023-06-10T01:01:41;17.33;;;9.25;;
61393;SDS011;48555;50.952;-0.120;2023-06-10T01:04:08;18.17;;;9.50;;
61393;SDS011;48555;50.952;-0.120;2023-06-10T01:07:23;18.00;;;9.75;;
61393;SDS011;48555;50.952;-0.120;2023-06-10T01:14:48;17.90;;;7.80;;
61393;SDS011;48555;50.952;-0.120;2023-06-10T01:17:16;15.57;;;8.32;;
61393;SDS011;48555;50.952;-0.120;2023-06-10T01:19:43;13.27;;;7.78;;
61393;SDS011;48555;50.952;-0.120;2023-06-10T01:22:09;14.63;;;7.47;;
61393;SDS011;48555;50.952;-0.120;2023-06-10T01:24:35;17.42;;;8.63;;
61393;SDS011;48555;50.952;-0.120;2023-06-10T01:27:03;16.00;;;8.30;;
61393;SDS011;48555;50.952;-0.120;2023-06-10T01:29:37;16.90;;;8.45;;
61393;SDS011;48555;50.952;-0.120;2023-06-10T01:32:17;13.32;;;7.75;;
61393;SDS011;48555;50.952;-0.120;2023-06-10T01:34:47;16.92;;;8.40;;
61393;SDS011;48555;50.952;-0.120;2023-06-10T01:37:14;17.42;;;8.65;;
61393;SDS011;48555;50.952;-0.120;2023-06-10T01:39:43;16.20;;;8.60;;
61393;SDS011;48555;50.952;-0.120;2023-06-10T01:42:08;14.23;;;7.97;;
61393;SDS011;48555;50.952;-0.120;2023-06-10T01:44:35;14.43;;;8.32;;
61393;SDS011;48555;50.952;-0.120;2023-06-10T01:47:01;13.40;;;7.78;;
61393;SDS011;48555;50.952;-0.120;2023-06-10T01:49:26;15.80;;;8.32;;
61393;SDS011;48555;50.952;-0.120;2023-06-10T01:51:53;14.90;;;8.15;;
61393;SDS011;48555;50.952;-0.120;2023-06-10T01:54:19;12.40;;;7.57;;
61393;SDS011;48555;50.952;-0.120;2023-06-10T01:56:44;15.27;;;8.60;;
61393;SDS011;48555;50.952;-0.120;2023-06-10T01:59:09;13.27;;;7.63;;
61393;SDS011;48555;50.952;-0.120;2023-06-10T02:01:35;13.80;;;6.78;;
61393;SDS011;48555;50.952;-0.120;2023-06-10T02:04:00;12.20;;;7.20;;
61393;SDS011;48555;50.952;-0.120;2023-06-10T02:06:25;13.10;;;7.38;;
61393;SDS011;48555;50.952;-0.120;2023-06-10T02:08:51;12.57;;;6.53;;
61393;SDS011;48555;50.952;-0.120;2023-06-10T02:11:16;11.15;;;6.47;;
61393;SDS011;48555;50.952;-0.120;2023-06-10T02:13:41;8.63;;;6.20;;
61393;SDS011;48555;50.952;-0.120;2023-06-10T02:16:07;11.48;;;6.78;;
61393;SDS011;48555;50.952;-0.120;2023-06-10T02:18:32;10.43;;;6.03;;
61393;SDS011;48555;50.952;-0.120;2023-06-10T02:20:58;13.13;;;6.95;;
61393;SDS011;48555;50.952;-0.120;2023-06-10T02:23:24;10.38;;;6.32;;
61393;SDS011;48555;50.952;-0.120;2023-06-10T02:25:49;8.90;;;5.95;;
61393;SDS011;48555;50.952;-0.120;2023-06-10T02:28:15;10.80;;;6.55;;
61393;SDS011;48555;50.952;-0.120;2023-06-10T02:30:40;12.43;;;5.85;;
61393;SDS011;48555;50.952;-0.120;2023-06-10T02:33:07;10.30;;;6.57;;
61393;SDS011;48555;50.952;-0.120;2023-06-10T02:35:38;12.38;;;6.55;;
61393;SDS011;48555;50.952;-0.120;2023-06-10T02:38:04;10.38;;;6.53;;
61393;SDS011;48555;50.952;-0.120;2023-06-10T02:40:30;11.82;;;6.60;;
61393;SDS011;48555;50.952;-0.120;2023-06-10T02:42:56;10.48;;;6.47;;
61393;SDS011;48555;50.952;-0.120;2023-06-10T02:45:22;11.63;;;6.18;;
61393;SDS011;48555;50.952;-0.120;2023-06-10T02:47:47;9.48;;;6.05;;
61393;SDS011;48555;50.952;-0.120;2023-06-10T02:50:12;14.18;;;7.07;;
61393;SDS011;48555;50.952;-0.120;2023-06-10T02:52:38;11.30;;;6.10;;
61393;SDS011;48555;50.952;-0.120;2023-06-10T02:55:03;11.77;;;6.57;;
61393;SDS011;48555;50.952;-0.120;2023-06-10T02:57:29;10.13;;;5.78;;
61393;SDS011;48555;50.952;-0.120;2023-06-10T02:59:54;12.10;;;6.03;;
61393;SDS011;48555;50.952;-0.120;2023-06-10T03:02:20;10.98;;;6.22;;
61393;SDS011;48555;50.952;-0.120;2023-06-10T03:04:45;11.15;;;6.30;;
61393;SDS011;48555;50.952;-0.120;2023-06-10T03:07:10;12.07;;;6.53;;
61393;SDS011;48555;50.952;-0.120;2023-06-10T03:09:36;12.73;;;6.38;;
61393;SDS011;48555;50.952;-0.120;2023-06-10T03:12:02;11.93;;;6.28;;
61393;SDS011;48555;50.952;-0.120;2023-06-10T03:14:27;12.43;;;6.43;;
61393;SDS011;48555;50.952;-0.120;2023-06-10T03:16:53;11.70;;;6.28;;
61393;SDS011;48555;50.952;-0.120;2023-06-10T03:19:18;10.57;;;5.75;;
61393;SDS011;48555;50.952;-0.120;2023-06-10T03:21:44;10.63;;;6.97;;
61393;SDS011;48555;50.952;-0.120;2023-06-10T03:24:10;10.15;;;6.30;;
61393;SDS011;48555;50.952;-0.120;2023-06-10T03:26:36;9.80;;;6.13;;
61393;SDS011;48555;50.952;-0.120;2023-06-10T03:29:01;11.85;;;6.32;;
61393;SDS011;48555;50.952;-0.120;2023-06-10T03:31:27;12.75;;;6.50;;
61393;SDS011;48555;50.952;-0.120;2023-06-10T03:33:52;11.70;;;6.50;;
61393;SDS011;48555;50.952;-0.120;2023-06-10T03:36:17;11.60;;;6.13;;
61393;SDS011;48555;50.952;-0.120;2023-06-10T03:38:43;9.95;;;6.53;;
61393;SDS011;48555;50.952;-0.120;2023-06-10T03:41:08;13.20;;;6.72;;
61393;SDS011;48555;50.952;-0.120;2023-06-10T03:43:33;12.07;;;6.65;;
61393;SDS011;48555;50.952;-0.120;2023-06-10T03:45:59;9.52;;;5.75;;
61393;SDS011;48555;50.952;-0.120;2023-06-10T03:48:24;8.77;;;5.70;;
61393;SDS011;48555;50.952;-0.120;2023-06-10T03:50:50;11.25;;;5.88;;
61393;SDS011;48555;50.952;-0.120;2023-06-10T03:53:18;11.68;;;6.28;;
61393;SDS011;48555;50.952;-0.120;2023-06-10T03:55:44;11.48;;;6.28;;
61393;SDS011;48555;50.952;-0.120;2023-06-10T03:58:10;7.90;;;5.78;;
61393;SDS011;48555;50.952;-0.120;2023-06-10T04:00:38;8.98;;;5.72;;
61393;SDS011;48555;50.952;-0.120;2023-06-10T04:03:09;9.63;;;5.63;;
61393;SDS011;48555;50.952;-0.120;2023-06-10T04:05:39;11.07;;;6.53;;
61393;SDS011;48555;50.952;-0.120;2023-06-10T04:08:04;9.98;;;5.50;;
61393;SDS011;48555;50.952;-0.120;2023-06-10T04:10:30;10.02;;;6.13;;
61393;SDS011;48555;50.952;-0.120;2023-06-10T04:12:55;10.20;;;5.82;;
61393;SDS011;48555;50.952;-0.120;2023-06-10T04:15:20;9.38;;;6.10;;
61393;SDS011;48555;50.952;-0.120;2023-06-10T04:17:46;8.85;;;6.22;;
61393;SDS011;48555;50.952;-0.120;2023-06-10T04:20:14;8.35;;;5.80;;
61393;SDS011;48555;50.952;-0.120;2023-06-10T04:22:40;11.65;;;6.35;;
61393;SDS011;48555;50.952;-0.120;2023-06-10T04:25:06;10.43;;;6.18;;
61393;SDS011;48555;50.952;-0.120;2023-06-10T04:27:32;10.10;;;6.43;;
61393;SDS011;48555;50.952;-0.120;2023-06-10T04:29:58;10.55;;;6.35;;
61393;SDS011;48555;50.952;-0.120;2023-06-10T04:32:23;8.82;;;5.93;;
61393;SDS011;48555;50.952;-0.120;2023-06-10T04:34:48;13.23;;;6.82;;
61393;SDS011;48555;50.952;-0.120;2023-06-10T04:37:14;12.20;;;6.18;;
61393;SDS011;48555;50.952;-0.120;2023-06-10T04:39:39;12.25;;;6.55;;
61393;SDS011;48555;50.952;-0.120;2023-06-10T04:42:06;10.82;;;6.25;;
61393;SDS011;48555;50.952;-0.120;2023-06-10T04:44:32;11.57;;;7.20;;
61393;SDS011;48555;50.952;-0.120;2023-06-10T04:46:57;12.43;;;6.72;;
61393;SDS011;48555;50.952;-0.120;2023-06-10T04:49:22;12.35;;;7.03;;
61393;SDS011;48555;50.952;-0.120;2023-06-10T04:51:48;13.70;;;7.10;;
61393;SDS011;48555;50.952;-0.120;2023-06-10T04:54:13;13.07;;;7.13;;
61393;SDS011;48555;50.952;-0.120;2023-06-10T04:56:39;10.98;;;6.60;;
61393;SDS011;48555;50.952;-0.120;2023-06-10T04:59:04;12.18;;;6.82;;
61393;SDS011;48555;50.952;-0.120;2023-06-10T05:01:30;14.40;;;7.18;;
61393;SDS011;48555;50.952;-0.120;2023-06-10T05:03:55;13.25;;;6.68;;
61393;SDS011;48555;50.952;-0.120;2023-06-10T05:06:21;13.85;;;7.15;;
61393;SDS011;48555;50.952;-0.120;2023-06-10T05:08:46;12.23;;;6.60;;
61393;SDS011;48555;50.952;-0.120;2023-06-10T05:11:11;14.45;;;7.25;;
61393;SDS011;48555;50.952;-0.120;2023-06-10T05:13:37;14.60;;;7.10;;
61393;SDS011;48555;50.952;-0.120;2023-06-10T05:16:02;16.35;;;7.10;;
61393;SDS011;48555;50.952;-0.120;2023-06-10T05:18:28;10.85;;;6.32;;
61393;SDS011;48555;50.952;-0.120;2023-06-10T05:20:53;13.63;;;6.68;;
61393;SDS011;48555;50.952;-0.120;2023-06-10T05:23:19;14.10;;;6.65;;
61393;SDS011;48555;50.952;-0.120;2023-06-10T05:25:45;13.38;;;6.65;;
61393;SDS011;48555;50.952;-0.120;2023-06-10T05:28:11;12.95;;;6.65;;
61393;SDS011;48555;50.952;-0.120;2023-06-10T05:30:36;13.43;;;6.53;;
61393;SDS011;48555;50.952;-0.120;2023-06-10T05:33:02;12.40;;;6.10;;
61393;SDS011;48555;50.952;-0.120;2023-06-10T05:35:28;14.57;;;6.40;;
61393;SDS011;48555;50.952;-0.120;2023-06-10T05:37:53;13.85;;;6.43;;
61393;SDS011;48555;50.952;-0.120;2023-06-10T05:40:19;15.23;;;7.00;;
61393;SDS011;48555;50.952;-0.120;2023-06-10T05:42:44;11.55;;;6.22;;
61393;SDS011;48555;50.952;-0.120;2023-06-10T05:45:10;14.65;;;7.03;;
61393;SDS011;48555;50.952;-0.120;2023-06-10T05:47:35;13.25;;;6.50;;
61393;SDS011;48555;50.952;-0.120;2023-06-10T05:50:01;15.27;;;6.63;;
61393;SDS011;48555;50.952;-0.120;2023-06-10T05:52:26;18.13;;;7.32;;
61393;SDS011;48555;50.952;-0.120;2023-06-10T05:54:51;12.85;;;6.63;;
61393;SDS011;48555;50.952;-0.120;2023-06-10T05:57:17;14.32;;;6.97;;
61393;SDS011;48555;50.952;-0.120;2023-06-10T05:59:42;17.55;;;7.28;;
61393;SDS011;48555;50.952;-0.120;2023-06-10T06:02:07;12.07;;;6.97;;
61393;SDS011;48555;50.952;-0.120;2023-06-10T06:04:33;14.40;;;6.57;;
61393;SDS011;48555;50.952;-0.120;2023-06-10T06:06:59;15.57;;;6.88;;
61393;SDS011;48555;50.952;-0.120;2023-06-10T06:09:24;15.68;;;7.43;;
61393;SDS011;48555;50.952;-0.120;2023-06-10T06:11:50;13.27;;;6.57;;
61393;SDS011;48555;50.952;-0.120;2023-06-10T06:14:15;13.20;;;6.70;;
61393;SDS011;48555;50.952;-0.120;2023-06-10T06:16:40;13.40;;;6.30;;
61393;SDS011;48555;50.952;-0.120;2023-06-10T06:19:06;13.18;;;6.80;;
61393;SDS011;48555;50.952;-0.120;2023-06-10T06:21:31;14.77;;;6.40;;
61393;SDS011;48555;50.952;-0.120;2023-06-10T06:23:57;12.25;;;6.85;;
61393;SDS011;48555;50.952;-0.120;2023-06-10T06:26:24;12.23;;;6.82;;
61393;SDS011;48555;50.952;-0.120;2023-06-10T06:28:50;13.70;;;6.85;;
61393;SDS011;48555;50.952;-0.120;2023-06-10T06:31:15;15.98;;;7.07;;
61393;SDS011;48555;50.952;-0.120;2023-06-10T06:33:41;16.13;;;6.80;;
61393;SDS011;48555;50.952;-0.120;2023-06-10T06:36:06;14.25;;;6.75;;
61393;SDS011;48555;50.952;-0.120;2023-06-10T06:38:32;13.13;;;6.80;;
61393;SDS011;48555;50.952;-0.120;2023-06-10T06:40:57;12.57;;;6.57;;
61393;SDS011;48555;50.952;-0.120;2023-06-10T06:43:27;13.48;;;6.28;;
61393;SDS011;48555;50.952;-0.120;2023-06-10T06:45:54;14.57;;;7.03;;
61393;SDS011;48555;50.952;-0.120;2023-06-10T06:48:20;12.10;;;6.53;;
61393;SDS011;48555;50.952;-0.120;2023-06-10T06:50:45;14.85;;;7.18;;
61393;SDS011;48555;50.952;-0.120;2023-06-10T06:53:11;13.23;;;6.60;;
61393;SDS011;48555;50.952;-0.120;2023-06-10T06:55:37;12.30;;;6.18;;
61393;SDS011;48555;50.952;-0.120;2023-06-10T06:58:02;12.05;;;6.63;;
61393;SDS011;48555;50.952;-0.120;2023-06-10T07:00:29;15.55;;;7.38;;
61393;SDS011;48555;50.952;-0.120;2023-06-10T07:02:54;12.15;;;6.55;;
61393;SDS011;48555;50.952;-0.120;2023-06-10T07:05:20;12.15;;;5.88;;
61393;SDS011;48555;50.952;-0.120;2023-06-10T07:07:45;12.75;;;6.40;;
61393;SDS011;48555;50.952;-0.120;2023-06-10T07:10:11;12.50;;;6.40;;
61393;SDS011;48555;50.952;-0.120;2023-06-10T07:12:36;10.55;;;6.18;;
61393;SDS011;48555;50.952;-0.120;2023-06-10T07:15:02;11.73;;;6.25;;
61393;SDS011;48555;50.952;-0.120;2023-06-10T07:17:27;11.43;;;6.68;;
61393;SDS011;48555;50.952;-0.120;2023-06-10T07:19:53;11.30;;;6.45;;
61393;SDS011;48555;50.952;-0.120;2023-06-10T07:22:18;10.52;;;6.18;;
61393;SDS011;48555;50.952;-0.120;2023-06-10T07:24:43;11.02;;;6.32;;
61393;SDS011;48555;50.952;-0.120;2023-06-10T07:27:09;11.15;;;6.15;;
61393;SDS011;48555;50.952;-0.120;2023-06-10T07:29:35;11.70;;;6.38;;
61393;SDS011;48555;50.952;-0.120;2023-06-10T07:32:01;14.07;;;6.60;;
61393;SDS011;48555;50.952;-0.120;2023-06-10T07:34:27;10.63;;;5.80;;
61393;SDS011;48555;50.952;-0.120;2023-06-10T07:36:53;14.50;;;6.50;;
61393;SDS011;48555;50.952;-0.120;2023-06-10T07:39:18;12.25;;;5.80;;
61393;SDS011;48555;50.952;-0.120;2023-06-10T07:41:43;14.15;;;6.38;;
61393;SDS011;48555;50.952;-0.120;2023-06-10T07:44:09;12.27;;;6.30;;
61393;SDS011;48555;50.952;-0.120;2023-06-10T07:46:34;10.68;;;5.35;;
61393;SDS011;48555;50.952;-0.120;2023-06-10T07:49:00;10.43;;;6.07;;
61393;SDS011;48555;50.952;-0.120;2023-06-10T07:51:25;10.55;;;5.80;;
61393;SDS011;48555;50.952;-0.120;2023-06-10T07:53:50;9.18;;;5.70;;
61393;SDS011;48555;50.952;-0.120;2023-06-10T07:56:16;10.13;;;6.18;;
61393;SDS011;48555;50.952;-0.120;2023-06-10T07:58:41;8.70;;;5.65;;
61393;SDS011;48555;50.952;-0.120;2023-06-10T08:01:06;9.30;;;5.70;;
61393;SDS011;48555;50.952;-0.120;2023-06-10T08:03:32;10.50;;;5.68;;
61393;SDS011;48555;50.952;-0.120;2023-06-10T08:05:58;9.68;;;5.45;;
61393;SDS011;48555;50.952;-0.120;2023-06-10T08:08:23;11.40;;;5.88;;
61393;SDS011;48555;50.952;-0.120;2023-06-10T08:10:48;9.10;;;5.53;;
61393;SDS011;48555;50.952;-0.120;2023-06-10T08:13:14;8.00;;;5.88;;
61393;SDS011;48555;50.952;-0.120;2023-06-10T08:15:40;12.05;;;6.30;;
61393;SDS011;48555;50.952;-0.120;2023-06-10T08:18:05;11.45;;;6.10;;
61393;SDS011;48555;50.952;-0.120;2023-06-10T08:20:31;12.02;;;6.00;;
61393;SDS011;48555;50.952;-0.120;2023-06-10T08:22:57;9.90;;;5.63;;
61393;SDS011;48555;50.952;-0.120;2023-06-10T08:25:22;11.93;;;5.57;;
61393;SDS011;48555;50.952;-0.120;2023-06-10T08:27:48;9.73;;;5.55;;
61393;SDS011;48555;50.952;-0.120;2023-06-10T08:30:13;10.82;;;6.07;;
61393;SDS011;48555;50.952;-0.120;2023-06-10T08:32:39;8.82;;;5.63;;
61393;SDS011;48555;50.952;-0.120;2023-06-10T08:35:04;10.40;;;6.15;;
61393;SDS011;48555;50.952;-0.120;2023-06-10T08:37:30;10.23;;;5.45;;
61393;SDS011;48555;50.952;-0.120;2023-06-10T08:39:55;10.20;;;5.90;;
61393;SDS011;48555;50.952;-0.120;2023-06-10T08:45:04;9.50;;;6.20;;
61393;SDS011;48555;50.952;-0.120;2023-06-10T08:47:31;7.65;;;5.32;;
61393;SDS011;48555;50.952;-0.120;2023-06-10T08:50:03;9.88;;;5.85;;
61393;SDS011;48555;50.952;-0.120;2023-06-10T08:52:29;9.75;;;5.90;;
61393;SDS011;48555;50.952;-0.120;2023-06-10T08:55:44;9.35;;;6.25;;
61393;SDS011;48555;50.952;-0.120;2023-06-10T08:58:03;10.05;;;6.07;;
61393;SDS011;48555;50.952;-0.120;2023-06-10T09:00:29;9.25;;;5.88;;
61393;SDS011;48555;50.952;-0.120;2023-06-10T09:02:55;9.27;;;5.45;;
61393;SDS011;48555;50.952;-0.120;2023-06-10T09:05:21;8.73;;;5.75;;
61393;SDS011;48555;50.952;-0.120;2023-06-10T09:07:47;10.05;;;5.55;;
61393;SDS011;48555;50.952;-0.120;2023-06-10T09:10:13;9.75;;;5.53;;
61393;SDS011;48555;50.952;-0.120;2023-06-10T09:12:39;10.45;;;6.13;;
61393;SDS011;48555;50.952;-0.120;2023-06-10T09:15:06;8.32;;;5.43;;
61393;SDS011;48555;50.952;-0.120;2023-06-10T09:17:32;11.30;;;5.68;;
61393;SDS011;48555;50.952;-0.120;2023-06-10T09:19:59;8.70;;;6.00;;
61393;SDS011;48555;50.952;-0.120;2023-06-10T09:22:25;10.38;;;5.78;;
61393;SDS011;48555;50.952;-0.120;2023-06-10T09:24:51;9.57;;;5.97;;
61393;SDS011;48555;50.952;-0.120;2023-06-10T09:27:26;10.65;;;5.40;;
61393;SDS011;48555;50.952;-0.120;2023-06-10T09:29:55;9.20;;;5.68;;
61393;SDS011;48555;50.952;-0.120;2023-06-10T09:32:20;10.05;;;5.65;;
61393;SDS011;48555;50.952;-0.120;2023-06-10T09:34:46;8.57;;;5.68;;
61393;SDS011;48555;50.952;-0.120;2023-06-10T09:37:13;7.40;;;5.25;;
61393;SDS011;48555;50.952;-0.120;2023-06-10T09:39:45;8.48;;;5.55;;
61393;SDS011;48555;50.952;-0.120;2023-06-10T09:42:32;7.53;;;5.78;;
61393;SDS011;48555;50.952;-0.120;2023-06-10T09:45:00;6.82;;;5.28;;
61393;SDS011;48555;50.952;-0.120;2023-06-10T09:47:26;9.48;;;5.50;;
61393;SDS011;48555;50.952;-0.120;2023-06-10T09:49:51;9.25;;;5.55;;
61393;SDS011;48555;50.952;-0.120;2023-06-10T09:52:27;8.55;;;5.70;;
61393;SDS011;48555;50.952;-0.120;2023-06-10T09:54:55;9.98;;;5.30;;
61393;SDS011;48555;50.952;-0.120;2023-06-10T09:57:25;7.88;;;5.15;;
61393;SDS011;48555;50.952;-0.120;2023-06-10T09:59:53;8.55;;;5.57;;
61393;SDS011;48555;50.952;-0.120;2023-06-10T10:02:19;10.93;;;5.55;;
61393;SDS011;48555;50.952;-0.120;2023-06-10T10:04:45;7.40;;;5.53;;
61393;SDS011;48555;50.952;-0.120;2023-06-10T10:07:11;9.52;;;6.03;;
61393;SDS011;48555;50.952;-0.120;2023-06-10T10:09:37;9.50;;;5.88;;
61393;SDS011;48555;50.952;-0.120;2023-06-10T10:12:13;10.02;;;5.40;;
61393;SDS011;48555;50.952;-0.120;2023-06-10T10:14:46;7.97;;;5.93;;
61393;SDS011;48555;50.952;-0.120;2023-06-10T10:17:14;8.55;;;5.95;;
61393;SDS011;48555;50.952;-0.120;2023-06-10T10:19:43;12.73;;;5.82;;
61393;SDS011;48555;50.952;-0.120;2023-06-10T10:22:58;8.73;;;5.15;;
61393;SDS011;48555;50.952;-0.120;2023-06-10T10:25:08;10.00;;;5.80;;
61393;SDS011;48555;50.952;-0.120;2023-06-10T10:30:59;10.05;;;5.47;;
61393;SDS011;48555;50.952;-0.120;2023-06-10T10:33:31;7.70;;;5.72;;
61393;SDS011;48555;50.952;-0.120;2023-06-10T10:36:16;9.45;;;5.18;;
61393;SDS011;48555;50.952;-0.120;2023-06-10T10:38:45;8.07;;;5.43;;
61393;SDS011;48555;50.952;-0.120;2023-06-10T10:41:12;9.85;;;5.38;;
61393;SDS011;48555;50.952;-0.120;2023-06-10T10:43:39;7.90;;;5.13;;
61393;SDS011;48555;50.952;-0.120;2023-06-10T10:46:15;8.50;;;4.95;;
61393;SDS011;48555;50.952;-0.120;2023-06-10T10:48:42;8.68;;;5.47;;
61393;SDS011;48555;50.952;-0.120;2023-06-10T10:51:09;7.93;;;5.20;;
61393;SDS011;48555;50.952;-0.120;2023-06-10T10:53:38;6.88;;;4.85;;
61393;SDS011;48555;50.952;-0.120;2023-06-10T10:56:08;6.35;;;4.65;;
61393;SDS011;48555;50.952;-0.120;2023-06-10T10:58:38;8.15;;;4.70;;
61393;SDS011;48555;50.952;-0.120;2023-06-10T11:01:10;9.02;;;5.05;;
61393;SDS011;48555;50.952;-0.120;2023-06-10T11:03:41;7.40;;;5.00;;
61393;SDS011;48555;50.952;-0.120;2023-06-10T11:06:13;6.80;;;4.95;;
61393;SDS011;48555;50.952;-0.120;2023-06-10T11:11:17;7.43;;;4.78;;
61393;SDS011;48555;50.952;-0.120;2023-06-10T11:16:56;7.38;;;4.55;;
61393;SDS011;48555;50.952;-0.120;2023-06-10T11:19:32;6.63;;;4.68;;
61393;SDS011;48555;50.952;-0.120;2023-06-10T11:22:05;6.68;;;4.30;;
61393;SDS011;48555;50.952;-0.120;2023-06-10T11:24:31;7.60;;;4.50;;
61393;SDS011;48555;50.952;-0.120;2023-06-10T11:32:34;6.13;;;4.13;;
61393;SDS011;48555;50.952;-0.120;2023-06-10T11:35:03;5.68;;;4.45;;
61393;SDS011;48555;50.952;-0.120;2023-06-10T11:37:29;5.70;;;4.63;;
61393;SDS011;48555;50.952;-0.120;2023-06-10T11:39:55;8.23;;;4.38;;
61393;SDS011;48555;50.952;-0.120;2023-06-10T11:42:21;7.20;;;4.40;;
61393;SDS011;48555;50.952;-0.120;2023-06-10T11:44:51;5.72;;;4.15;;
61393;SDS011;48555;50.952;-0.120;2023-06-10T11:47:17;5.95;;;4.40;;
61393;SDS011;48555;50.952;-0.120;2023-06-10T11:49:44;6.60;;;4.40;;
61393;SDS011;48555;50.952;-0.120;2023-06-10T11:52:10;5.82;;;4.50;;
61393;SDS011;48555;50.952;-0.120;2023-06-10T11:54:36;6.68;;;4.28;;
61393;SDS011;48555;50.952;-0.120;2023-06-10T11:57:02;6.53;;;4.45;;
61393;SDS011;48555;50.952;-0.120;2023-06-10T11:59:28;6.00;;;4.13;;
61393;SDS011;48555;50.952;-0.120;2023-06-10T12:01:55;7.72;;;4.65;;
61393;SDS011;48555;50.952;-0.120;2023-06-10T12:04:21;6.00;;;4.47;;
61393;SDS011;48555;50.952;-0.120;2023-06-10T12:06:52;6.00;;;4.50;;
61393;SDS011;48555;50.952;-0.120;2023-06-10T12:09:22;5.43;;;4.40;;
61393;SDS011;48555;50.952;-0.120;2023-06-10T12:11:58;7.07;;;4.53;;
61393;SDS011;48555;50.952;-0.120;2023-06-10T12:17:35;7.18;;;4.30;;
61393;SDS011;48555;50.952;-0.120;2023-06-10T12:20:06;6.60;;;4.70;;
61393;SDS011;48555;50.952;-0.120;2023-06-10T12:22:42;5.60;;;4.13;;
61393;SDS011;48555;50.952;-0.120;2023-06-10T12:25:09;7.15;;;4.60;;
61393;SDS011;48555;50.952;-0.120;2023-06-10T12:27:35;6.40;;;4.65;;
61393;SDS011;48555;50.952;-0.120;2023-06-10T12:30:02;6.95;;;4.70;;
61393;SDS011;48555;50.952;-0.120;2023-06-10T12:35:03;6.63;;;4.63;;
61393;SDS011;48555;50.952;-0.120;2023-06-10T12:37:30;5.13;;;3.97;;
61393;SDS011;48555;50.952;-0.120;2023-06-10T12:39:58;6.95;;;4.25;;
61393;SDS011;48555;50.952;-0.120;2023-06-10T12:42:29;8.02;;;4.35;;
61393;SDS011;48555;50.952;-0.120;2023-06-10T12:44:55;6.63;;;4.32;;
61393;SDS011;48555;50.952;-0.120;2023-06-10T12:47:28;7.05;;;4.10;;
61393;SDS011;48555;50.952;-0.120;2023-06-10T12:49:59;6.63;;;4.30;;
61393;SDS011;48555;50.952;-0.120;2023-06-10T12:52:25;6.25;;;4.20;;
61393;SDS011;48555;50.952;-0.120;2023-06-10T12:54:51;5.53;;;4.10;;
61393;SDS011;48555;50.952;-0.120;2023-06-10T12:57:17;7.15;;;4.13;;
61393;SDS011;48555;50.952;-0.120;2023-06-10T12:59:42;5.78;;;4.20;;
61393;SDS011;48555;50.952;-0.120;2023-06-10T13:02:15;5.70;;;4.10;;
61393;SDS011;48555;50.952;-0.120;2023-06-10T13:04:41;7.40;;;4.68;;
61393;SDS011;48555;50.952;-0.120;2023-06-10T13:07:08;5.30;;;4.10;;
61393;SDS011;48555;50.952;-0.120;2023-06-10T13:09:35;5.68;;;3.90;;
61393;SDS011;48555;50.952;-0.120;2023-06-10T13:12:01;6.13;;;4.18;;
61393;SDS011;48555;50.952;-0.120;2023-06-10T13:14:26;5.97;;;4.20;;
61393;SDS011;48555;50.952;-0.120;2023-06-10T13:16:51;7.03;;;4.32;;
61393;SDS011;48555;50.952;-0.120;2023-06-10T13:19:18;5.78;;;4.35;;
61393;SDS011;48555;50.952;-0.120;2023-06-10T13:21:46;6.68;;;3.95;;
61393;SDS011;48555;50.952;-0.120;2023-06-10T13:24:12;5.25;;;4.30;;
61393;SDS011;48555;50.952;-0.120;2023-06-10T13:26:37;7.38;;;4.20;;
61393;SDS011;48555;50.952;-0.120;2023-06-10T13:29:03;5.80;;;4.18;;
61393;SDS011;48555;50.952;-0.120;2023-06-10T13:31:29;6.82;;;4.68;;
61393;SDS011;48555;50.952;-0.120;2023-06-10T13:33:54;5.32;;;4.45;;
61393;SDS011;48555;50.952;-0.120;2023-06-10T13:36:20;7.15;;;4.72;;
61393;SDS011;48555;50.952;-0.120;2023-06-10T13:38:45;7.00;;;4.90;;
61393;SDS011;48555;50.952;-0.120;2023-06-10T13:41:12;5.68;;;4.50;;
61393;SDS011;48555;50.952;-0.120;2023-06-10T13:43:38;6.68;;;4.40;;
61393;SDS011;48555;50.952;-0.120;2023-06-10T13:46:04;7.20;;;4.63;;
61393;SDS011;48555;50.952;-0.120;2023-06-10T13:48:29;7.50;;;4.90;;
61393;SDS011;48555;50.952;-0.120;2023-06-10T13:50:55;6.25;;;4.47;;
61393;SDS011;48555;50.952;-0.120;2023-06-10T13:53:20;5.90;;;4.75;;
61393;SDS011;48555;50.952;-0.120;2023-06-10T13:55:45;5.85;;;4.85;;
61393;SDS011;48555;50.952;-0.120;2023-06-10T13:58:11;7.40;;;5.10;;
61393;SDS011;48555;50.952;-0.120;2023-06-10T14:00:36;6.40;;;4.70;;
61393;SDS011;48555;50.952;-0.120;2023-06-10T14:03:01;6.32;;;4.90;;
61393;SDS011;48555;50.952;-0.120;2023-06-10T14:05:28;6.10;;;4.85;;
61393;SDS011;48555;50.952;-0.120;2023-06-10T14:07:53;7.07;;;4.88;;
61393;SDS011;48555;50.952;-0.120;2023-06-10T14:10:19;7.40;;;4.95;;
61393;SDS011;48555;50.952;-0.120;2023-06-10T14:12:44;7.43;;;5.05;;
61393;SDS011;48555;50.952;-0.120;2023-06-10T14:15:10;6.28;;;4.80;;
61393;SDS011;48555;50.952;-0.120;2023-06-10T14:17:35;6.85;;;4.75;;
61393;SDS011;48555;50.952;-0.120;2023-06-10T14:20:01;5.80;;;4.70;;
61393;SDS011;48555;50.952;-0.120;2023-06-10T14:22:26;7.68;;;4.93;;
61393;SDS011;48555;50.952;-0.120;2023-06-10T14:24:51;7.10;;;5.05;;
61393;SDS011;48555;50.952;-0.120;2023-06-10T14:27:17;5.18;;;4.50;;
61393;SDS011;48555;50.952;-0.120;2023-06-10T14:29:42;6.43;;;4.80;;
61393;SDS011;48555;50.952;-0.120;2023-06-10T14:32:07;6.72;;;4.78;;
61393;SDS011;48555;50.952;-0.120;2023-06-10T14:34:33;6.35;;;4.85;;
61393;SDS011;48555;50.952;-0.120;2023-06-10T14:37:00;6.03;;;4.93;;
61393;SDS011;48555;50.952;-0.120;2023-06-10T14:39:25;8.10;;;5.43;;
61393;SDS011;48555;50.952;-0.120;2023-06-10T14:41:51;7.22;;;4.82;;
61393;SDS011;48555;50.952;-0.120;2023-06-10T14:44:17;9.27;;;5.20;;
61393;SDS011;48555;50.952;-0.120;2023-06-10T14:46:43;6.75;;;5.07;;
61393;SDS011;48555;50.952;-0.120;2023-06-10T14:49:08;6.68;;;4.68;;
61393;SDS011;48555;50.952;-0.120;2023-06-10T14:51:34;8.38;;;4.90;;